createdAt,value
2023-10-10T00:01:45.523Z,44.97
2023-10-10T00:04:13.453Z,47.83
2023-10-10T00:06:41.831Z,44.20
2023-10-10T00:09:13.256Z,42.27
2023-10-10T00:11:49.529Z,44.03
2023-10-10T00:14:20.646Z,43.07
2023-10-10T00:16:49.680Z,47.87
2023-10-10T00:19:29.823Z,48.63
2023-10-10T00:21:57.695Z,45.63
2023-10-10T00:24:32.074Z,51.87
2023-10-10T00:27:00.425Z,44.77
2023-10-10T00:29:28.266Z,46.13
2023-10-10T00:32:06.712Z,44.13
2023-10-10T00:34:38.456Z,44.67
2023-10-10T00:37:14.427Z,42.70
2023-10-10T00:39:41.762Z,39.90
2023-10-10T00:42:21.166Z,44.20
2023-10-10T00:44:49.380Z,49.60
2023-10-10T00:47:17.733Z,40.50
2023-10-10T00:49:46.658Z,43.03
2023-10-10T00:52:18.022Z,36.90
2023-10-10T00:54:46.776Z,39.30
2023-10-10T00:57:15.354Z,37.57
2023-10-10T00:59:49.656Z,35.37
2023-10-10T01:02:18.846Z,40.10
2023-10-10T01:04:52.513Z,42.07
2023-10-10T01:07:20.337Z,37.77
2023-10-10T01:09:57.962Z,33.83
2023-10-10T01:12:26.529Z,33.87
2023-10-10T01:14:56.021Z,35.07
2023-10-10T01:17:30.196Z,34.17
2023-10-10T01:20:00.203Z,34.63
2023-10-10T01:22:39.246Z,31.17
2023-10-10T01:25:25.175Z,29.93
2023-10-10T01:27:55.717Z,33.47
2023-10-10T01:30:43.211Z,31.50
2023-10-10T01:33:17.052Z,33.57
2023-10-10T01:35:47.382Z,36.77
2023-10-10T01:38:35.879Z,34.13
2023-10-10T01:41:16.385Z,30.50
2023-10-10T01:43:47.643Z,37.50
2023-10-10T01:46:21.256Z,36.20
2023-10-10T01:48:48.852Z,34.03
2023-10-10T01:51:16.535Z,38.20
2023-10-10T01:53:44.341Z,37.03
2023-10-10T01:56:14.726Z,33.23
2023-10-10T01:58:42.446Z,32.73
2023-10-10T02:01:20.702Z,31.70
2023-10-10T02:03:49.546Z,30.90
2023-10-10T02:06:25.782Z,29.43
2023-10-10T02:09:19.809Z,32.73
2023-10-10T02:11:56.107Z,32.97
2023-10-10T02:14:26.655Z,33.20
2023-10-10T02:16:57.123Z,32.77
2023-10-10T02:19:42.232Z,36.53
2023-10-10T02:22:20.595Z,32.80
2023-10-10T02:24:50.860Z,36.20
2023-10-10T02:27:23.498Z,32.57
2023-10-10T02:29:51.128Z,36.17
2023-10-10T02:32:22.016Z,33.83
2023-10-10T02:35:17.094Z,35.13
2023-10-10T02:37:47.196Z,32.93
2023-10-10T02:40:17.502Z,31.33
2023-10-10T02:43:10.393Z,32.33
2023-10-10T02:45:38.030Z,34.87
2023-10-10T02:48:09.286Z,32.73
2023-10-10T02:50:42.850Z,33.67
2023-10-10T02:53:10.444Z,38.80
2023-10-10T02:55:42.421Z,33.53
2023-10-10T02:58:21.767Z,36.10
2023-10-10T03:00:52.929Z,39.33
2023-10-10T03:03:20.511Z,32.13
2023-10-10T03:05:59.441Z,32.97
2023-10-10T03:08:36.450Z,38.90
2023-10-10T03:11:16.076Z,32.00
2023-10-10T03:13:49.628Z,38.63
2023-10-10T03:16:19.773Z,38.03
2023-10-10T03:18:56.497Z,38.90
2023-10-10T03:21:44.365Z,37.90
2023-10-10T03:24:23.709Z,35.03
2023-10-10T03:27:01.498Z,33.90
2023-10-10T03:29:38.690Z,35.23
2023-10-10T03:32:21.261Z,45.20
2023-10-10T03:34:58.592Z,45.83
2023-10-10T03:37:28.758Z,67.73
2023-10-10T03:39:58.757Z,75.77
2023-10-10T03:42:45.033Z,64.83
2023-10-10T03:45:30.946Z,50.57
2023-10-10T03:48:16.899Z,48.77
2023-10-10T03:51:03.665Z,46.30
2023-10-10T03:53:49.567Z,40.77
2023-10-10T03:56:39.282Z,38.63
2023-10-10T03:59:26.107Z,35.47
2023-10-10T04:02:15.197Z,36.60
2023-10-10T04:05:12.009Z,35.67
2023-10-10T04:08:07.441Z,32.97
2023-10-10T04:10:53.161Z,31.37
2023-10-10T04:13:39.273Z,32.67
2023-10-10T04:16:28.280Z,33.93
2023-10-10T04:19:14.568Z,34.27
2023-10-10T04:22:00.683Z,33.03
2023-10-10T04:24:46.559Z,33.30
2023-10-10T04:27:32.492Z,32.97
2023-10-10T04:30:18.536Z,30.67
2023-10-10T04:33:04.593Z,32.50
2023-10-10T04:35:50.377Z,36.63
2023-10-10T04:38:36.551Z,38.83
2023-10-10T04:41:22.570Z,32.03
2023-10-10T04:44:08.647Z,28.50
2023-10-10T04:46:54.757Z,31.43
2023-10-10T04:49:40.536Z,32.37
2023-10-10T04:52:26.302Z,33.90
2023-10-10T04:55:12.579Z,27.70
2023-10-10T04:57:58.486Z,28.97
2023-10-10T05:00:44.305Z,26.47
2023-10-10T05:03:30.313Z,29.17
2023-10-10T05:06:16.752Z,29.27
2023-10-10T05:09:02.689Z,31.97
2023-10-10T05:11:48.676Z,30.90
2023-10-10T05:14:34.956Z,28.80
2023-10-10T05:17:21.240Z,35.13
2023-10-10T05:20:07.048Z,29.97
2023-10-10T05:22:52.934Z,31.97
2023-10-10T05:25:26.188Z,32.90
2023-10-10T05:27:59.948Z,28.67
2023-10-10T05:30:46.927Z,30.87
2023-10-10T05:33:15.045Z,31.83
2023-10-10T05:35:48.900Z,28.57
2023-10-10T05:38:17.102Z,28.43
2023-10-10T05:40:44.676Z,31.13
2023-10-10T05:43:20.367Z,30.17
2023-10-10T05:45:48.937Z,30.33
2023-10-10T05:48:16.230Z,37.77
2023-10-10T05:50:43.952Z,31.73
2023-10-10T05:53:11.814Z,30.17
2023-10-10T05:55:39.683Z,33.47
2023-10-10T05:58:07.317Z,34.57
2023-10-10T06:00:38.135Z,35.67
2023-10-10T06:03:09.092Z,31.37
2023-10-10T06:05:36.769Z,29.03
2023-10-10T06:08:07.500Z,29.30
2023-10-10T06:10:35.015Z,25.90
2023-10-10T06:13:05.440Z,32.53
2023-10-10T06:15:36.299Z,27.80
2023-10-10T06:18:13.601Z,28.27
2023-10-10T06:23:22.319Z,34.20
2023-10-10T06:25:50.046Z,25.53
2023-10-10T06:28:37.679Z,28.87
2023-10-10T06:31:11.712Z,29.00
2023-10-10T06:33:42.496Z,29.10
2023-10-10T06:36:33.640Z,33.13
2023-10-10T06:39:21.739Z,31.20
2023-10-10T06:41:52.056Z,30.03
2023-10-10T06:44:40.378Z,28.63
2023-10-10T06:47:12.991Z,29.40
2023-10-10T06:49:59.300Z,29.57
2023-10-10T06:52:29.469Z,28.10
2023-10-10T06:54:57.101Z,28.23
2023-10-10T06:57:39.206Z,29.17
2023-10-10T07:00:16.291Z,27.03
2023-10-10T07:02:49.086Z,27.43
2023-10-10T07:05:20.889Z,32.17
2023-10-10T07:07:58.596Z,27.47
2023-10-10T07:10:37.038Z,28.00
2023-10-10T07:13:04.870Z,24.63
2023-10-10T07:15:36.377Z,31.30
2023-10-10T07:18:11.243Z,27.40
2023-10-10T07:20:57.385Z,25.43
2023-10-10T07:23:25.902Z,27.13
2023-10-10T07:26:02.452Z,26.80
2023-10-10T07:28:30.456Z,24.67
2023-10-10T07:30:57.871Z,28.63
2023-10-10T07:33:27.442Z,27.23
2023-10-10T07:35:55.122Z,24.53
2023-10-10T07:38:29.123Z,26.63
2023-10-10T07:40:56.692Z,22.53
2023-10-10T07:43:28.857Z,27.10
2023-10-10T07:45:56.287Z,24.20
2023-10-10T07:48:29.501Z,23.07
2023-10-10T07:51:09.385Z,23.83
2023-10-10T07:53:44.108Z,22.97
2023-10-10T07:56:11.686Z,20.57
2023-10-10T07:58:51.912Z,19.43
2023-10-10T08:01:20.582Z,20.30
2023-10-10T08:03:48.485Z,20.13
2023-10-10T08:06:23.780Z,21.67
2023-10-10T08:09:11.223Z,21.77
2023-10-10T08:11:38.882Z,23.67
2023-10-10T08:14:10.067Z,21.73
2023-10-10T08:16:38.482Z,20.47
2023-10-10T08:19:06.184Z,21.03
2023-10-10T08:21:38.776Z,19.57
2023-10-10T08:24:08.145Z,21.60
2023-10-10T08:26:42.262Z,24.17
2023-10-10T08:29:16.401Z,23.10
2023-10-10T08:31:44.193Z,21.53
2023-10-10T08:34:15.904Z,21.47
2023-10-10T08:36:45.427Z,22.30
2023-10-10T08:39:33.227Z,26.57
2023-10-10T08:42:01.486Z,21.27
2023-10-10T08:44:30.413Z,20.40
2023-10-10T08:46:59.909Z,25.23
2023-10-10T08:49:29.573Z,22.33
2023-10-10T08:52:02.873Z,24.10
2023-10-10T08:54:30.364Z,24.83
2023-10-10T08:57:26.874Z,24.07
2023-10-10T08:59:54.214Z,25.73
2023-10-10T09:02:22.039Z,25.27
2023-10-10T09:04:51.939Z,25.73
2023-10-10T09:07:28.091Z,26.47
2023-10-10T09:10:07.740Z,24.17
2023-10-10T09:12:36.097Z,24.13
2023-10-10T09:15:18.221Z,24.33
2023-10-10T09:17:47.015Z,25.67
2023-10-10T09:20:24.266Z,24.10
2023-10-10T09:23:18.285Z,24.43
2023-10-10T09:25:49.856Z,30.27
2023-10-10T09:28:20.188Z,26.43
2023-10-10T09:31:13.932Z,25.17
2023-10-10T09:33:46.844Z,24.57
2023-10-10T09:36:17.514Z,25.57
2023-10-10T09:38:48.477Z,25.23
2023-10-10T09:41:37.873Z,23.63
2023-10-10T09:44:31.876Z,25.50
2023-10-10T09:47:08.339Z,22.98
2023-10-10T09:49:41.821Z,27.42
2023-10-10T09:52:31.345Z,25.75
2023-10-10T09:55:14.818Z,24.13
2023-10-10T09:57:45.931Z,32.50
2023-10-10T10:00:27.218Z,25.15
2023-10-10T10:03:01.563Z,25.67
2023-10-10T10:05:30.992Z,22.57
2023-10-10T10:08:07.742Z,25.02
2023-10-10T10:10:47.917Z,28.92
2023-10-10T10:13:15.379Z,30.07
2023-10-10T10:15:54.884Z,24.48
2023-10-10T10:18:29.038Z,25.35
2023-10-10T10:21:16.192Z,25.15
2023-10-10T10:23:47.103Z,23.92
2023-10-10T10:26:33.129Z,24.10
2023-10-10T10:29:02.159Z,25.52
2023-10-10T10:31:31.009Z,23.15
2023-10-10T10:34:29.833Z,26.17
2023-10-10T10:36:57.995Z,23.55
2023-10-10T10:39:35.983Z,23.95
2023-10-10T10:42:13.741Z,26.88
2023-10-10T10:44:54.730Z,25.38
2023-10-10T10:47:39.323Z,21.40
2023-10-10T10:50:18.794Z,21.80
2023-10-10T10:52:58.511Z,24.83
2023-10-10T10:55:29.953Z,24.85
2023-10-10T10:58:07.608Z,27.45
2023-10-10T11:01:00.160Z,30.67
2023-10-10T11:03:34.766Z,25.23
2023-10-10T11:06:07.471Z,26.70
2023-10-10T11:11:41.651Z,26.08
2023-10-10T11:14:15.702Z,24.67
2023-10-10T11:16:47.270Z,27.67
2023-10-10T11:19:24.745Z,27.73
2023-10-10T11:21:54.908Z,31.23
2023-10-10T11:24:26.830Z,27.67
2023-10-10T11:27:15.363Z,27.13
2023-10-10T11:29:46.112Z,25.92
2023-10-10T11:32:14.706Z,30.73
2023-10-10T11:34:46.123Z,26.55
2023-10-10T11:37:15.092Z,27.02
2023-10-10T11:39:49.705Z,32.55
2023-10-10T11:42:27.376Z,29.05
2023-10-10T11:44:55.588Z,26.65
2023-10-10T11:47:26.105Z,26.52
2023-10-10T11:50:06.240Z,26.08
2023-10-10T11:52:34.014Z,28.63
2023-10-10T11:55:01.600Z,26.33
2023-10-10T11:57:39.019Z,28.35
2023-10-10T12:00:26.488Z,27.05
2023-10-10T12:03:00.768Z,29.05
2023-10-10T12:05:31.307Z,28.92
2023-10-10T12:08:02.556Z,31.08
2023-10-10T12:10:48.344Z,28.25
2023-10-10T12:13:42.408Z,31.52
2023-10-10T12:16:11.993Z,29.42
2023-10-10T12:19:00.120Z,32.78
2023-10-10T12:21:27.952Z,31.48
2023-10-10T12:24:00.756Z,26.58
2023-10-10T12:26:31.523Z,32.15
2023-10-10T12:28:59.325Z,30.70
2023-10-10T12:31:26.591Z,28.98
2023-10-10T12:33:56.835Z,33.75
2023-10-10T12:36:30.254Z,32.33
2023-10-10T12:38:59.532Z,32.75
2023-10-10T12:41:27.942Z,31.30
2023-10-10T12:43:55.297Z,28.38
2023-10-10T12:46:23.006Z,35.10
2023-10-10T12:48:53.178Z,35.90
2023-10-10T12:51:23.849Z,35.20
2023-10-10T12:54:01.318Z,36.92
2023-10-10T12:56:29.222Z,36.50
2023-10-10T12:59:22.995Z,35.85
2023-10-10T13:01:56.779Z,32.78
2023-10-10T13:04:30.760Z,34.08
2023-10-10T13:07:04.220Z,32.92
2023-10-10T13:09:32.937Z,39.47
2023-10-10T13:12:04.258Z,37.22
2023-10-10T13:14:34.320Z,36.97
2023-10-10T13:17:22.058Z,36.70
2023-10-10T13:19:50.248Z,35.13
2023-10-10T13:22:22.379Z,47.10
2023-10-10T13:24:50.413Z,41.95
2023-10-10T13:27:19.149Z,43.92
2023-10-10T13:29:46.804Z,43.67
2023-10-10T13:32:14.172Z,45.78
2023-10-10T13:34:41.451Z,54.63
2023-10-10T13:37:09.279Z,46.60
2023-10-10T13:39:45.096Z,49.63
2023-10-10T13:42:18.852Z,47.15
2023-10-10T13:44:50.154Z,44.75
2023-10-10T13:47:18.398Z,47.78
2023-10-10T13:49:46.162Z,44.63
2023-10-10T13:52:14.538Z,49.72
2023-10-10T13:54:41.990Z,50.05
2023-10-10T13:57:11.535Z,48.42
2023-10-10T13:59:39.070Z,40.80
2023-10-10T14:02:11.982Z,45.38
2023-10-10T14:04:49.640Z,40.92
2023-10-10T14:07:17.253Z,40.58
2023-10-10T14:10:02.283Z,37.75
2023-10-10T14:12:33.576Z,41.20
2023-10-10T14:15:02.530Z,34.95
2023-10-10T14:17:31.005Z,39.60
2023-10-10T14:19:59.857Z,38.95
2023-10-10T14:22:27.892Z,37.65
2023-10-10T14:24:59.500Z,41.25
2023-10-10T14:27:28.020Z,38.67
2023-10-10T14:29:58.794Z,40.08
2023-10-10T14:32:38.732Z,46.45
2023-10-10T14:35:08.193Z,52.70
2023-10-10T14:37:53.576Z,51.55
2023-10-10T14:40:24.459Z,52.60
2023-10-10T14:42:53.577Z,49.25
2023-10-10T14:45:25.344Z,41.25
2023-10-10T14:47:53.099Z,40.17
2023-10-10T14:50:24.581Z,40.47
2023-10-10T14:52:52.793Z,43.42
2023-10-10T14:55:26.676Z,45.08
2023-10-10T14:57:56.293Z,44.83
2023-10-10T15:00:29.588Z,55.47
2023-10-10T15:02:57.887Z,53.28
2023-10-10T15:05:25.927Z,52.88
2023-10-10T15:07:53.945Z,46.33
2023-10-10T15:10:27.433Z,48.22
2023-10-10T15:12:55.499Z,45.40
2023-10-10T15:15:24.434Z,45.70
2023-10-10T15:17:52.489Z,51.47
2023-10-10T15:20:20.338Z,50.13
2023-10-10T15:22:47.755Z,50.42
2023-10-10T15:25:16.554Z,54.78
2023-10-10T15:27:44.028Z,56.33
2023-10-10T15:30:12.219Z,56.63
2023-10-10T15:32:49.328Z,56.08
2023-10-10T15:35:18.489Z,56.38
2023-10-10T15:37:46.205Z,57.20
2023-10-10T15:40:33.759Z,58.50
2023-10-10T15:43:03.219Z,60.78
2023-10-10T15:45:38.635Z,61.35
2023-10-10T15:48:06.736Z,65.25
2023-10-10T15:50:34.182Z,59.63
2023-10-10T15:53:01.431Z,51.55
2023-10-10T15:55:28.642Z,59.17
2023-10-10T15:57:55.850Z,59.95
2023-10-10T16:00:33.550Z,57.17
2023-10-10T16:03:07.465Z,59.28
2023-10-10T16:05:42.616Z,65.38
2023-10-10T16:08:10.372Z,78.22
2023-10-10T16:10:41.704Z,102.13
2023-10-10T16:13:10.191Z,109.07
2023-10-10T16:15:38.524Z,107.90
2023-10-10T16:18:06.333Z,74.43
2023-10-10T16:20:37.106Z,70.65
2023-10-10T16:23:09.192Z,69.45
2023-10-10T16:25:38.330Z,75.45
2023-10-10T16:28:06.250Z,69.07
2023-10-10T16:30:36.141Z,71.70
2023-10-10T16:33:04.029Z,64.68
2023-10-10T16:35:34.124Z,73.25
2023-10-10T16:38:03.496Z,74.43
2023-10-10T16:40:31.366Z,74.80
2023-10-10T16:42:58.902Z,75.10
2023-10-10T16:45:26.245Z,88.80
2023-10-10T16:47:55.356Z,121.80
2023-10-10T16:50:23.157Z,101.57
2023-10-10T16:53:04.123Z,87.70
2023-10-10T16:55:37.788Z,80.50
2023-10-10T16:58:05.249Z,79.85
2023-10-10T17:00:36.169Z,80.10
2023-10-10T17:03:03.711Z,72.40
2023-10-10T17:05:37.501Z,98.35
2023-10-10T17:08:05.633Z,98.38
2023-10-10T17:10:33.540Z,101.75
2023-10-10T17:13:01.587Z,123.78
2023-10-10T17:15:28.862Z,119.22
2023-10-10T17:17:58.501Z,113.40
2023-10-10T17:20:26.250Z,95.22
2023-10-10T17:22:53.570Z,91.82
2023-10-10T17:25:20.798Z,88.45
2023-10-10T17:27:53.136Z,86.25
2023-10-10T17:30:22.701Z,76.03
2023-10-10T17:32:50.393Z,94.97
2023-10-10T17:35:18.888Z,96.67
2023-10-10T17:37:46.495Z,91.45
2023-10-10T17:40:14.545Z,94.35
2023-10-10T17:42:47.241Z,88.45
2023-10-10T17:45:14.595Z,78.30
2023-10-10T17:47:41.923Z,87.45
2023-10-10T17:50:09.435Z,83.30
2023-10-10T17:52:36.934Z,76.28
2023-10-10T17:55:04.274Z,94.70
2023-10-10T17:57:31.885Z,125.43
2023-10-10T17:59:59.352Z,112.15
2023-10-10T18:02:26.791Z,90.97
2023-10-10T18:04:54.215Z,93.03
2023-10-10T18:07:23.608Z,73.63
2023-10-10T18:09:56.637Z,81.60
2023-10-10T18:12:24.516Z,84.37
2023-10-10T18:14:55.105Z,73.03
2023-10-10T18:17:25.998Z,70.20
2023-10-10T18:19:53.286Z,63.47
2023-10-10T18:22:20.767Z,61.33
2023-10-10T18:24:48.741Z,67.87
2023-10-10T18:27:16.699Z,63.87
2023-10-10T18:29:43.920Z,63.77
2023-10-10T18:32:11.178Z,64.63
2023-10-10T18:34:43.112Z,66.47
2023-10-10T18:37:12.928Z,53.33
2023-10-10T18:39:40.483Z,48.07
2023-10-10T18:42:10.617Z,46.90
2023-10-10T18:44:38.692Z,46.70
2023-10-10T18:47:06.170Z,43.53
2023-10-10T18:49:35.078Z,45.43
2023-10-10T18:52:02.554Z,46.27
2023-10-10T18:54:31.804Z,52.20
2023-10-10T18:57:02.022Z,63.27
2023-10-10T18:59:29.406Z,70.60
2023-10-10T19:01:57.519Z,60.43
2023-10-10T19:04:26.146Z,51.33
2023-10-10T19:06:54.639Z,50.90
2023-10-10T19:09:24.460Z,55.67
2023-10-10T19:11:58.536Z,48.27
2023-10-10T19:14:34.974Z,49.30
2023-10-10T19:17:02.796Z,47.27
2023-10-10T19:19:32.910Z,51.70
2023-10-10T19:22:01.295Z,49.40
2023-10-10T19:24:28.959Z,51.27
2023-10-10T19:26:56.260Z,50.47
2023-10-10T19:29:24.994Z,55.67
2023-10-10T19:31:52.214Z,52.50
2023-10-10T19:34:19.464Z,53.57
2023-10-10T19:36:46.678Z,49.63
2023-10-10T19:39:14.001Z,50.53
2023-10-10T19:41:41.659Z,45.95
2023-10-10T19:44:09.491Z,48.60
2023-10-10T19:46:36.894Z,51.47
2023-10-10T19:49:06.030Z,54.37
2023-10-10T19:51:33.757Z,48.67
2023-10-10T19:54:00.935Z,50.13
2023-10-10T19:56:30.234Z,47.73
2023-10-10T19:58:57.733Z,48.47
2023-10-10T20:01:26.542Z,46.07
2023-10-10T20:03:56.915Z,47.17
2023-10-10T20:06:24.550Z,50.03
2023-10-10T20:08:53.788Z,46.67
2023-10-10T20:11:22.618Z,51.33
2023-10-10T20:13:49.927Z,51.60
2023-10-10T20:16:18.128Z,56.13
2023-10-10T20:18:45.904Z,55.30
2023-10-10T20:21:14.262Z,51.70
2023-10-10T20:23:43.427Z,47.83
2023-10-10T20:26:20.013Z,47.30
2023-10-10T20:28:49.322Z,48.30
2023-10-10T20:31:19.010Z,49.80
2023-10-10T20:33:49.170Z,49.97
2023-10-10T20:36:17.063Z,40.00
2023-10-10T20:38:45.241Z,40.37
2023-10-10T20:41:13.595Z,40.77
2023-10-10T20:43:42.080Z,46.13
2023-10-10T20:46:09.428Z,46.80
2023-10-10T20:48:37.040Z,52.70
2023-10-10T20:51:04.754Z,46.80
2023-10-10T20:53:32.716Z,41.15
2023-10-10T20:56:02.302Z,49.00
2023-10-10T20:58:30.253Z,46.72
2023-10-10T21:00:57.808Z,45.88
2023-10-10T21:03:25.249Z,40.17
2023-10-10T21:05:52.722Z,41.50
2023-10-10T21:08:20.127Z,44.67
2023-10-10T21:10:47.607Z,39.73
2023-10-10T21:13:16.521Z,40.25
2023-10-10T21:15:44.062Z,41.67
2023-10-10T21:18:11.506Z,39.85
2023-10-10T21:20:52.017Z,43.93
2023-10-10T21:23:28.388Z,38.33
2023-10-10T21:25:55.756Z,36.50
2023-10-10T21:28:24.012Z,39.77
2023-10-10T21:30:52.188Z,39.67
2023-10-10T21:33:19.848Z,41.65
2023-10-10T21:35:49.990Z,38.10
2023-10-10T21:38:18.627Z,42.22
2023-10-10T21:40:46.003Z,41.15
2023-10-10T21:43:13.703Z,37.83
2023-10-10T21:45:40.946Z,35.10
2023-10-10T21:48:11.627Z,41.00
2023-10-10T21:50:42.206Z,38.63
2023-10-10T21:53:09.678Z,38.95
2023-10-10T21:55:41.821Z,38.15
2023-10-10T21:58:09.486Z,38.22
2023-10-10T22:00:36.782Z,38.92
2023-10-10T22:03:08.050Z,34.60
2023-10-10T22:05:36.317Z,36.95
2023-10-10T22:08:05.831Z,37.67
2023-10-10T22:10:34.392Z,41.27
2023-10-10T22:13:02.362Z,39.90
2023-10-10T22:15:34.612Z,38.88
2023-10-10T22:18:05.493Z,37.50
2023-10-10T22:20:36.190Z,36.38
2023-10-10T22:23:05.921Z,39.83
2023-10-10T22:25:35.856Z,43.80
2023-10-10T22:28:04.520Z,37.45
2023-10-10T22:30:34.180Z,37.08
2023-10-10T22:33:03.992Z,34.15
2023-10-10T22:35:33.850Z,30.50
2023-10-10T22:38:01.573Z,32.60
2023-10-10T22:40:29.005Z,32.88
2023-10-10T22:42:56.962Z,27.92
2023-10-10T22:45:24.914Z,31.15
2023-10-10T22:47:55.823Z,31.45
2023-10-10T22:50:23.948Z,31.02
2023-10-10T22:52:53.744Z,34.08
2023-10-10T22:55:21.639Z,36.67
2023-10-10T22:57:52.701Z,34.08
2023-10-10T23:00:37.640Z,32.08
2023-10-10T23:03:06.891Z,29.50
2023-10-10T23:05:34.792Z,32.80
2023-10-10T23:08:07.217Z,28.75
2023-10-10T23:10:35.426Z,34.85
2023-10-10T23:13:05.892Z,33.55
2023-10-10T23:15:33.044Z,30.10
2023-10-10T23:18:01.672Z,28.40
2023-10-10T23:20:30.314Z,29.48
2023-10-10T23:22:58.193Z,25.40
2023-10-10T23:25:28.468Z,27.10
2023-10-10T23:27:57.424Z,27.48
2023-10-10T23:30:28.470Z,29.80
2023-10-10T23:32:57.142Z,26.52
2023-10-10T23:35:25.920Z,27.30
2023-10-10T23:37:54.468Z,26.92
2023-10-10T23:40:22.943Z,26.52
2023-10-10T23:42:52.728Z,23.35
2023-10-10T23:45:23.947Z,24.92
2023-10-10T23:47:53.028Z,23.00
2023-10-10T23:50:23.980Z,23.05
2023-10-10T23:52:55.457Z,22.67
2023-10-10T23:55:23.138Z,26.13
2023-10-10T23:57:51.437Z,23.20
